sensor_id;sensor_type;location;lat;lon;timestamp;temperature;humidity
18930;DHT22;43305;52.186;5.598;2023-04-08T00:02:25;5.80;99.90
18930;DHT22;43305;52.186;5.598;2023-04-08T00:04:53;5.80;99.90
18930;DHT22;43305;52.186;5.598;2023-04-08T00:07:20;5.80;99.90
18930;DHT22;43305;52.186;5.598;2023-04-08T00:09:48;5.80;99.90
18930;DHT22;43305;52.186;5.598;2023-04-08T00:12:16;5.80;99.90
18930;DHT22;43305;52.186;5.598;2023-04-08T00:14:43;5.80;99.90
18930;DHT22;43305;52.186;5.598;2023-04-08T00:17:10;5.80;99.90
18930;DHT22;43305;52.186;5.598;2023-04-08T00:19:39;5.80;99.90
18930;DHT22;43305;52.186;5.598;2023-04-08T00:22:06;5.80;99.90
18930;DHT22;43305;52.186;5.598;2023-04-08T00:24:36;5.70;99.90
18930;DHT22;43305;52.186;5.598;2023-04-08T00:27:03;5.70;99.90
18930;DHT22;43305;52.186;5.598;2023-04-08T00:29:30;5.70;99.90
18930;DHT22;43305;52.186;5.598;2023-04-08T00:31:57;5.70;99.90
18930;DHT22;43305;52.186;5.598;2023-04-08T00:34:29;5.70;99.90
18930;DHT22;43305;52.186;5.598;2023-04-08T00:37:02;5.70;99.90
18930;DHT22;43305;52.186;5.598;2023-04-08T00:39:29;5.70;99.90
18930;DHT22;43305;52.186;5.598;2023-04-08T00:42:04;5.70;99.90
18930;DHT22;43305;52.186;5.598;2023-04-08T00:44:37;5.70;99.90
18930;DHT22;43305;52.186;5.598;2023-04-08T00:47:13;5.60;99.90
18930;DHT22;43305;52.186;5.598;2023-04-08T00:49:53;5.70;99.90
18930;DHT22;43305;52.186;5.598;2023-04-08T00:52:24;5.70;99.90
18930;DHT22;43305;52.186;5.598;2023-04-08T00:54:57;5.70;99.90
18930;DHT22;43305;52.186;5.598;2023-04-08T00:57:29;5.70;99.90
18930;DHT22;43305;52.186;5.598;2023-04-08T01:00:03;5.70;99.90
18930;DHT22;43305;52.186;5.598;2023-04-08T01:02:41;5.70;99.90
18930;DHT22;43305;52.186;5.598;2023-04-08T01:05:13;5.70;99.90
18930;DHT22;43305;52.186;5.598;2023-04-08T01:07:45;5.70;99.90
18930;DHT22;43305;52.186;5.598;2023-04-08T01:10:27;5.70;99.90
18930;DHT22;43305;52.186;5.598;2023-04-08T01:12:58;5.70;99.90
18930;DHT22;43305;52.186;5.598;2023-04-08T01:15:41;5.70;99.90
18930;DHT22;43305;52.186;5.598;2023-04-08T01:18:12;5.70;99.90
18930;DHT22;43305;52.186;5.598;2023-04-08T01:20:41;5.70;99.90
18930;DHT22;43305;52.186;5.598;2023-04-08T01:23:17;5.70;99.90
18930;DHT22;43305;52.186;5.598;2023-04-08T01:25:50;5.70;99.90
18930;DHT22;43305;52.186;5.598;2023-04-08T01:28:18;5.70;99.90
18930;DHT22;43305;52.186;5.598;2023-04-08T01:30:49;5.70;99.90
18930;DHT22;43305;52.186;5.598;2023-04-08T01:33:18;5.60;99.90
18930;DHT22;43305;52.186;5.598;2023-04-08T01:35:49;5.60;99.90
18930;DHT22;43305;52.186;5.598;2023-04-08T01:38:22;5.70;99.90
18930;DHT22;43305;52.186;5.598;2023-04-08T01:40:53;5.70;99.90
18930;DHT22;43305;52.186;5.598;2023-04-08T01:43:21;5.60;99.90
18930;DHT22;43305;52.186;5.598;2023-04-08T01:45:51;5.70;99.90
18930;DHT22;43305;52.186;5.598;2023-04-08T01:48:23;5.70;99.90
18930;DHT22;43305;52.186;5.598;2023-04-08T01:50:52;5.70;99.90
18930;DHT22;43305;52.186;5.598;2023-04-08T01:53:20;5.60;99.90
18930;DHT22;43305;52.186;5.598;2023-04-08T01:56:03;5.60;99.90
18930;DHT22;43305;52.186;5.598;2023-04-08T01:58:37;5.60;99.90
18930;DHT22;43305;52.186;5.598;2023-04-08T02:01:09;5.60;99.90
18930;DHT22;43305;52.186;5.598;2023-04-08T02:03:44;5.50;99.90
18930;DHT22;43305;52.186;5.598;2023-04-08T02:06:12;5.60;99.90
18930;DHT22;43305;52.186;5.598;2023-04-08T02:08:39;5.60;99.90
18930;DHT22;43305;52.186;5.598;2023-04-08T02:11:08;5.50;99.90
18930;DHT22;43305;52.186;5.598;2023-04-08T02:13:35;5.50;99.90
18930;DHT22;43305;52.186;5.598;2023-04-08T02:16:05;5.50;99.90
18930;DHT22;43305;52.186;5.598;2023-04-08T02:18:42;5.50;99.90
18930;DHT22;43305;52.186;5.598;2023-04-08T02:21:12;5.40;99.90
18930;DHT22;43305;52.186;5.598;2023-04-08T02:23:41;5.30;99.90
18930;DHT22;43305;52.186;5.598;2023-04-08T02:26:13;5.30;99.90
18930;DHT22;43305;52.186;5.598;2023-04-08T02:28:45;5.20;99.90
18930;DHT22;43305;52.186;5.598;2023-04-08T02:31:13;5.20;99.90
18930;DHT22;43305;52.186;5.598;2023-04-08T02:33:43;5.20;99.90
18930;DHT22;43305;52.186;5.598;2023-04-08T02:36:12;5.10;99.90
18930;DHT22;43305;52.186;5.598;2023-04-08T02:38:40;5.10;99.90
18930;DHT22;43305;52.186;5.598;2023-04-08T02:41:10;5.10;99.90
18930;DHT22;43305;52.186;5.598;2023-04-08T02:43:40;5.10;99.90
18930;DHT22;43305;52.186;5.598;2023-04-08T02:46:09;5.00;99.90
18930;DHT22;43305;52.186;5.598;2023-04-08T02:48:37;4.90;99.90
18930;DHT22;43305;52.186;5.598;2023-04-08T02:51:05;4.80;99.90
18930;DHT22;43305;52.186;5.598;2023-04-08T02:53:32;4.80;99.90
18930;DHT22;43305;52.186;5.598;2023-04-08T02:56:00;4.70;99.90
18930;DHT22;43305;52.186;5.598;2023-04-08T02:58:28;4.70;99.90
18930;DHT22;43305;52.186;5.598;2023-04-08T03:01:03;4.70;99.90
18930;DHT22;43305;52.186;5.598;2023-04-08T03:03:30;4.70;99.90
18930;DHT22;43305;52.186;5.598;2023-04-08T03:05:57;4.70;99.90
18930;DHT22;43305;52.186;5.598;2023-04-08T03:08:26;4.60;99.90
18930;DHT22;43305;52.186;5.598;2023-04-08T03:10:53;4.60;99.90
18930;DHT22;43305;52.186;5.598;2023-04-08T03:13:20;4.60;99.90
18930;DHT22;43305;52.186;5.598;2023-04-08T03:15:57;4.50;99.90
18930;DHT22;43305;52.186;5.598;2023-04-08T03:18:24;4.50;99.90
18930;DHT22;43305;52.186;5.598;2023-04-08T03:20:51;4.40;99.90
18930;DHT22;43305;52.186;5.598;2023-04-08T03:23:21;4.40;99.90
18930;DHT22;43305;52.186;5.598;2023-04-08T03:25:48;4.40;99.90
18930;DHT22;43305;52.186;5.598;2023-04-08T03:28:15;4.30;99.90
18930;DHT22;43305;52.186;5.598;2023-04-08T03:30:44;4.20;99.90
18930;DHT22;43305;52.186;5.598;2023-04-08T03:33:12;4.20;99.90
18930;DHT22;43305;52.186;5.598;2023-04-08T03:35:39;4.10;99.90
18930;DHT22;43305;52.186;5.598;2023-04-08T03:38:06;4.10;99.90
18930;DHT22;43305;52.186;5.598;2023-04-08T03:40:34;4.10;99.90
18930;DHT22;43305;52.186;5.598;2023-04-08T03:43:01;4.00;99.90
18930;DHT22;43305;52.186;5.598;2023-04-08T03:45:28;4.00;99.90
18930;DHT22;43305;52.186;5.598;2023-04-08T03:47:55;4.00;99.90
18930;DHT22;43305;52.186;5.598;2023-04-08T03:50:23;4.00;99.90
18930;DHT22;43305;52.186;5.598;2023-04-08T03:52:50;3.90;99.90
18930;DHT22;43305;52.186;5.598;2023-04-08T03:55:17;3.90;99.90
18930;DHT22;43305;52.186;5.598;2023-04-08T03:57:45;3.90;99.90
18930;DHT22;43305;52.186;5.598;2023-04-08T04:00:12;3.80;99.90
18930;DHT22;43305;52.186;5.598;2023-04-08T04:02:46;3.80;99.90
18930;DHT22;43305;52.186;5.598;2023-04-08T04:05:13;3.70;99.90
18930;DHT22;43305;52.186;5.598;2023-04-08T04:07:41;3.70;99.90
18930;DHT22;43305;52.186;5.598;2023-04-08T04:10:09;3.60;99.90
18930;DHT22;43305;52.186;5.598;2023-04-08T04:12:36;3.60;99.90
18930;DHT22;43305;52.186;5.598;2023-04-08T04:15:04;3.60;99.90
18930;DHT22;43305;52.186;5.598;2023-04-08T04:17:34;3.50;99.90
18930;DHT22;43305;52.186;5.598;2023-04-08T04:20:06;3.40;99.90
18930;DHT22;43305;52.186;5.598;2023-04-08T04:22:34;3.40;99.90
18930;DHT22;43305;52.186;5.598;2023-04-08T04:25:03;3.40;99.90
18930;DHT22;43305;52.186;5.598;2023-04-08T04:27:30;3.30;99.90
18930;DHT22;43305;52.186;5.598;2023-04-08T04:29:57;3.30;99.90
18930;DHT22;43305;52.186;5.598;2023-04-08T04:32:31;3.30;99.90
18930;DHT22;43305;52.186;5.598;2023-04-08T04:35:00;3.20;99.90
18930;DHT22;43305;52.186;5.598;2023-04-08T04:37:31;3.20;99.90
18930;DHT22;43305;52.186;5.598;2023-04-08T04:39:58;3.10;99.90
18930;DHT22;43305;52.186;5.598;2023-04-08T04:42:29;3.10;99.90
18930;DHT22;43305;52.186;5.598;2023-04-08T04:44:58;3.00;99.90
18930;DHT22;43305;52.186;5.598;2023-04-08T04:47:34;3.00;99.90
18930;DHT22;43305;52.186;5.598;2023-04-08T04:50:01;2.90;99.90
18930;DHT22;43305;52.186;5.598;2023-04-08T04:52:29;2.90;99.90
18930;DHT22;43305;52.186;5.598;2023-04-08T04:54:56;2.80;99.90
18930;DHT22;43305;52.186;5.598;2023-04-08T04:57:27;2.70;99.90
18930;DHT22;43305;52.186;5.598;2023-04-08T04:59:55;2.70;99.90
18930;DHT22;43305;52.186;5.598;2023-04-08T05:02:22;2.70;99.90
18930;DHT22;43305;52.186;5.598;2023-04-08T05:04:52;2.70;99.90
18930;DHT22;43305;52.186;5.598;2023-04-08T05:07:36;2.60;99.90
18930;DHT22;43305;52.186;5.598;2023-04-08T05:10:03;2.60;99.90
18930;DHT22;43305;52.186;5.598;2023-04-08T05:12:35;2.60;99.90
18930;DHT22;43305;52.186;5.598;2023-04-08T05:15:04;2.60;99.90
18930;DHT22;43305;52.186;5.598;2023-04-08T05:17:34;2.60;99.90
18930;DHT22;43305;52.186;5.598;2023-04-08T05:20:02;2.60;99.90
18930;DHT22;43305;52.186;5.598;2023-04-08T05:22:35;2.60;99.90
18930;DHT22;43305;52.186;5.598;2023-04-08T05:25:10;2.60;99.90
18930;DHT22;43305;52.186;5.598;2023-04-08T05:27:43;2.60;99.90
18930;DHT22;43305;52.186;5.598;2023-04-08T05:30:14;2.60;99.90
18930;DHT22;43305;52.186;5.598;2023-04-08T05:32:44;2.60;99.90
18930;DHT22;43305;52.186;5.598;2023-04-08T05:35:16;2.50;99.90
18930;DHT22;43305;52.186;5.598;2023-04-08T05:37:48;2.50;99.90
18930;DHT22;43305;52.186;5.598;2023-04-08T05:40:15;2.60;99.90
18930;DHT22;43305;52.186;5.598;2023-04-08T05:43:10;2.50;99.90
18930;DHT22;43305;52.186;5.598;2023-04-08T05:49:26;2.60;99.90
18930;DHT22;43305;52.186;5.598;2023-04-08T05:52:00;2.60;99.90
18930;DHT22;43305;52.186;5.598;2023-04-08T05:58:18;2.60;99.90
18930;DHT22;43305;52.186;5.598;2023-04-08T06:01:08;2.70;99.90
18930;DHT22;43305;52.186;5.598;2023-04-08T06:03:49;2.70;99.90
18930;DHT22;43305;52.186;5.598;2023-04-08T06:13:09;2.90;99.90
18930;DHT22;43305;52.186;5.598;2023-04-08T06:16:04;2.90;99.90
18930;DHT22;43305;52.186;5.598;2023-04-08T06:19:01;3.00;99.90
18930;DHT22;43305;52.186;5.598;2023-04-08T06:21:37;3.00;99.90
18930;DHT22;43305;52.186;5.598;2023-04-08T06:24:05;3.00;99.90
18930;DHT22;43305;52.186;5.598;2023-04-08T06:27:02;3.10;99.90
18930;DHT22;43305;52.186;5.598;2023-04-08T06:29:45;3.20;99.90
18930;DHT22;43305;52.186;5.598;2023-04-08T06:32:22;3.20;99.90
18930;DHT22;43305;52.186;5.598;2023-04-08T06:34:54;3.30;99.90
18930;DHT22;43305;52.186;5.598;2023-04-08T06:37:23;3.40;99.90
18930;DHT22;43305;52.186;5.598;2023-04-08T06:39:52;3.40;99.90
18930;DHT22;43305;52.186;5.598;2023-04-08T06:42:20;3.50;99.90
18930;DHT22;43305;52.186;5.598;2023-04-08T06:44:47;3.50;99.90
18930;DHT22;43305;52.186;5.598;2023-04-08T06:47:14;3.60;99.90
18930;DHT22;43305;52.186;5.598;2023-04-08T06:49:43;3.70;99.90
18930;DHT22;43305;52.186;5.598;2023-04-08T06:52:12;3.70;99.90
18930;DHT22;43305;52.186;5.598;2023-04-08T06:54:39;3.70;99.90
18930;DHT22;43305;52.186;5.598;2023-04-08T06:57:06;3.90;99.90
18930;DHT22;43305;52.186;5.598;2023-04-08T06:59:34;3.90;99.90
18930;DHT22;43305;52.186;5.598;2023-04-08T07:02:01;4.00;99.90
18930;DHT22;43305;52.186;5.598;2023-04-08T07:04:28;4.10;99.90
18930;DHT22;43305;52.186;5.598;2023-04-08T07:06:56;4.30;99.90
18930;DHT22;43305;52.186;5.598;2023-04-08T07:09:23;4.40;99.90
18930;DHT22;43305;52.186;5.598;2023-04-08T07:11:50;4.60;99.90
18930;DHT22;43305;52.186;5.598;2023-04-08T07:14:17;4.70;99.90
18930;DHT22;43305;52.186;5.598;2023-04-08T07:16:47;4.90;99.90
18930;DHT22;43305;52.186;5.598;2023-04-08T07:19:22;5.10;99.90
18930;DHT22;43305;52.186;5.598;2023-04-08T07:21:50;5.40;99.90
18930;DHT22;43305;52.186;5.598;2023-04-08T07:24:20;5.70;99.90
18930;DHT22;43305;52.186;5.598;2023-04-08T07:26:48;5.90;99.90
18930;DHT22;43305;52.186;5.598;2023-04-08T07:29:23;6.20;99.90
18930;DHT22;43305;52.186;5.598;2023-04-08T07:31:53;6.40;99.90
18930;DHT22;43305;52.186;5.598;2023-04-08T07:34:20;6.70;99.90
18930;DHT22;43305;52.186;5.598;2023-04-08T07:36:47;6.90;99.90
18930;DHT22;43305;52.186;5.598;2023-04-08T07:39:14;7.20;99.90
18930;DHT22;43305;52.186;5.598;2023-04-08T07:41:42;7.30;99.90
18930;DHT22;43305;52.186;5.598;2023-04-08T07:44:12;7.60;99.90
18930;DHT22;43305;52.186;5.598;2023-04-08T07:46:41;7.90;99.90
18930;DHT22;43305;52.186;5.598;2023-04-08T07:49:10;8.10;99.90
18930;DHT22;43305;52.186;5.598;2023-04-08T07:51:37;8.30;99.90
18930;DHT22;43305;52.186;5.598;2023-04-08T07:54:06;8.60;99.90
18930;DHT22;43305;52.186;5.598;2023-04-08T07:56:35;8.80;99.90
18930;DHT22;43305;52.186;5.598;2023-04-08T07:59:06;9.00;99.90
18930;DHT22;43305;52.186;5.598;2023-04-08T08:01:36;9.40;99.90
18930;DHT22;43305;52.186;5.598;2023-04-08T08:04:05;9.60;99.90
18930;DHT22;43305;52.186;5.598;2023-04-08T08:06:32;9.60;99.90
18930;DHT22;43305;52.186;5.598;2023-04-08T08:08:59;9.80;99.90
18930;DHT22;43305;52.186;5.598;2023-04-08T08:11:26;9.90;99.90
18930;DHT22;43305;52.186;5.598;2023-04-08T08:13:54;10.00;99.90
18930;DHT22;43305;52.186;5.598;2023-04-08T08:16:27;10.30;99.90
18930;DHT22;43305;52.186;5.598;2023-04-08T08:18:59;10.50;99.90
18930;DHT22;43305;52.186;5.598;2023-04-08T08:21:27;10.70;99.90
18930;DHT22;43305;52.186;5.598;2023-04-08T08:23:54;10.80;99.90
18930;DHT22;43305;52.186;5.598;2023-04-08T08:26:24;11.00;99.90
18930;DHT22;43305;52.186;5.598;2023-04-08T08:28:52;11.10;99.90
18930;DHT22;43305;52.186;5.598;2023-04-08T08:31:24;11.20;99.90
18930;DHT22;43305;52.186;5.598;2023-04-08T08:33:53;11.30;99.90
18930;DHT22;43305;52.186;5.598;2023-04-08T08:36:21;11.40;99.90
18930;DHT22;43305;52.186;5.598;2023-04-08T08:38:52;11.60;99.90
18930;DHT22;43305;52.186;5.598;2023-04-08T08:41:22;11.90;99.90
18930;DHT22;43305;52.186;5.598;2023-04-08T08:43:50;12.00;99.90
18930;DHT22;43305;52.186;5.598;2023-04-08T08:46:29;12.10;99.90
18930;DHT22;43305;52.186;5.598;2023-04-08T08:48:57;12.20;99.90
18930;DHT22;43305;52.186;5.598;2023-04-08T08:51:24;12.40;99.90
18930;DHT22;43305;52.186;5.598;2023-04-08T08:53:52;12.60;99.90
18930;DHT22;43305;52.186;5.598;2023-04-08T08:56:22;12.50;99.90
18930;DHT22;43305;52.186;5.598;2023-04-08T08:58:49;12.70;99.90
18930;DHT22;43305;52.186;5.598;2023-04-08T09:01:42;12.60;99.90
18930;DHT22;43305;52.186;5.598;2023-04-08T09:04:12;12.50;99.90
18930;DHT22;43305;52.186;5.598;2023-04-08T09:06:41;12.70;99.90
18930;DHT22;43305;52.186;5.598;2023-04-08T09:09:09;13.00;99.90
18930;DHT22;43305;52.186;5.598;2023-04-08T09:11:37;13.10;99.90
18930;DHT22;43305;52.186;5.598;2023-04-08T09:14:07;13.10;99.90
18930;DHT22;43305;52.186;5.598;2023-04-08T09:16:44;13.10;99.90
18930;DHT22;43305;52.186;5.598;2023-04-08T09:19:11;13.40;99.90
18930;DHT22;43305;52.186;5.598;2023-04-08T09:21:39;13.70;99.90
18930;DHT22;43305;52.186;5.598;2023-04-08T09:24:06;13.80;99.90
18930;DHT22;43305;52.186;5.598;2023-04-08T09:26:35;14.00;99.90
18930;DHT22;43305;52.186;5.598;2023-04-08T09:29:04;14.00;99.90
18930;DHT22;43305;52.186;5.598;2023-04-08T09:31:32;14.10;99.90
18930;DHT22;43305;52.186;5.598;2023-04-08T09:34:12;14.20;99.90
18930;DHT22;43305;52.186;5.598;2023-04-08T09:36:50;14.30;99.90
18930;DHT22;43305;52.186;5.598;2023-04-08T09:39:18;14.60;99.90
18930;DHT22;43305;52.186;5.598;2023-04-08T09:41:48;14.80;99.90
18930;DHT22;43305;52.186;5.598;2023-04-08T09:44:19;15.00;99.90
18930;DHT22;43305;52.186;5.598;2023-04-08T09:47:00;15.00;99.90
18930;DHT22;43305;52.186;5.598;2023-04-08T09:49:36;15.00;99.90
18930;DHT22;43305;52.186;5.598;2023-04-08T09:52:07;15.10;99.90
18930;DHT22;43305;52.186;5.598;2023-04-08T09:54:43;15.30;99.90
18930;DHT22;43305;52.186;5.598;2023-04-08T09:57:16;15.50;99.90
18930;DHT22;43305;52.186;5.598;2023-04-08T09:59:54;15.80;99.90
18930;DHT22;43305;52.186;5.598;2023-04-08T10:02:28;15.60;99.90
18930;DHT22;43305;52.186;5.598;2023-04-08T10:05:00;15.60;99.90
18930;DHT22;43305;52.186;5.598;2023-04-08T10:07:30;15.80;99.90
18930;DHT22;43305;52.186;5.598;2023-04-08T10:09:57;16.10;99.90
18930;DHT22;43305;52.186;5.598;2023-04-08T10:12:25;16.30;99.90
18930;DHT22;43305;52.186;5.598;2023-04-08T10:15:20;16.20;99.90
18930;DHT22;43305;52.186;5.598;2023-04-08T10:17:48;15.50;99.90
18930;DHT22;43305;52.186;5.598;2023-04-08T10:23:56;16.20;99.90
18930;DHT22;43305;52.186;5.598;2023-04-08T10:26:33;16.70;99.90
18930;DHT22;43305;52.186;5.598;2023-04-08T10:32:07;17.00;99.90
18930;DHT22;43305;52.186;5.598;2023-04-08T10:34:53;17.20;99.90
18930;DHT22;43305;52.186;5.598;2023-04-08T10:37:20;17.40;99.90
18930;DHT22;43305;52.186;5.598;2023-04-08T10:39:52;17.50;99.90
18930;DHT22;43305;52.186;5.598;2023-04-08T10:42:28;17.70;99.90
18930;DHT22;43305;52.186;5.598;2023-04-08T10:45:00;17.90;99.90
18930;DHT22;43305;52.186;5.598;2023-04-08T10:47:27;18.10;99.90
18930;DHT22;43305;52.186;5.598;2023-04-08T10:49:57;18.40;99.90
18930;DHT22;43305;52.186;5.598;2023-04-08T10:52:24;18.40;99.90
18930;DHT22;43305;52.186;5.598;2023-04-08T10:54:56;18.60;99.90
18930;DHT22;43305;52.186;5.598;2023-04-08T10:57:23;18.70;99.90
18930;DHT22;43305;52.186;5.598;2023-04-08T10:59:56;18.50;99.90
18930;DHT22;43305;52.186;5.598;2023-04-08T11:02:31;18.50;99.90
18930;DHT22;43305;52.186;5.598;2023-04-08T11:04:59;18.50;99.90
18930;DHT22;43305;52.186;5.598;2023-04-08T11:07:25;18.40;99.90
18930;DHT22;43305;52.186;5.598;2023-04-08T11:09:56;17.90;99.90
18930;DHT22;43305;52.186;5.598;2023-04-08T11:12:22;17.80;99.90
18930;DHT22;43305;52.186;5.598;2023-04-08T11:14:50;17.80;99.90
18930;DHT22;43305;52.186;5.598;2023-04-08T11:17:18;17.70;99.90
18930;DHT22;43305;52.186;5.598;2023-04-08T11:19:48;17.60;99.90
18930;DHT22;43305;52.186;5.598;2023-04-08T11:22:16;17.70;99.90
18930;DHT22;43305;52.186;5.598;2023-04-08T11:24:43;17.60;99.90
18930;DHT22;43305;52.186;5.598;2023-04-08T11:27:12;17.50;99.90
18930;DHT22;43305;52.186;5.598;2023-04-08T11:29:40;17.50;99.90
18930;DHT22;43305;52.186;5.598;2023-04-08T11:32:08;17.30;99.90
18930;DHT22;43305;52.186;5.598;2023-04-08T11:34:38;17.50;99.90
18930;DHT22;43305;52.186;5.598;2023-04-08T11:37:06;17.90;99.90
18930;DHT22;43305;52.186;5.598;2023-04-08T11:39:33;18.60;99.90
18930;DHT22;43305;52.186;5.598;2023-04-08T11:42:02;19.10;99.90
18930;DHT22;43305;52.186;5.598;2023-04-08T11:44:31;19.10;99.90
18930;DHT22;43305;52.186;5.598;2023-04-08T11:46:59;19.30;99.90
18930;DHT22;43305;52.186;5.598;2023-04-08T11:49:27;19.50;99.90
18930;DHT22;43305;52.186;5.598;2023-04-08T11:51:55;19.60;99.90
18930;DHT22;43305;52.186;5.598;2023-04-08T11:54:29;19.30;99.90
18930;DHT22;43305;52.186;5.598;2023-04-08T11:56:57;19.40;99.90
18930;DHT22;43305;52.186;5.598;2023-04-08T11:59:25;19.90;99.90
18930;DHT22;43305;52.186;5.598;2023-04-08T12:01:56;20.00;99.90
18930;DHT22;43305;52.186;5.598;2023-04-08T12:04:25;19.60;99.90
18930;DHT22;43305;52.186;5.598;2023-04-08T12:06:58;19.60;99.90
18930;DHT22;43305;52.186;5.598;2023-04-08T12:09:25;19.20;99.90
18930;DHT22;43305;52.186;5.598;2023-04-08T12:11:53;19.20;99.90
18930;DHT22;43305;52.186;5.598;2023-04-08T12:14:21;19.10;99.90
18930;DHT22;43305;52.186;5.598;2023-04-08T12:16:50;18.90;99.90
18930;DHT22;43305;52.186;5.598;2023-04-08T12:19:19;19.00;99.90
18930;DHT22;43305;52.186;5.598;2023-04-08T12:21:46;19.10;99.90
18930;DHT22;43305;52.186;5.598;2023-04-08T12:24:13;19.10;99.90
18930;DHT22;43305;52.186;5.598;2023-04-08T12:26:40;19.00;99.90
18930;DHT22;43305;52.186;5.598;2023-04-08T12:29:07;18.70;99.90
18930;DHT22;43305;52.186;5.598;2023-04-08T12:31:36;18.30;99.90
18930;DHT22;43305;52.186;5.598;2023-04-08T12:34:03;18.00;99.90
18930;DHT22;43305;52.186;5.598;2023-04-08T12:36:32;17.90;99.90
18930;DHT22;43305;52.186;5.598;2023-04-08T12:39:02;17.90;99.90
18930;DHT22;43305;52.186;5.598;2023-04-08T12:41:29;17.70;99.90
18930;DHT22;43305;52.186;5.598;2023-04-08T12:43:56;17.70;99.90
18930;DHT22;43305;52.186;5.598;2023-04-08T12:46:25;17.60;99.90
18930;DHT22;43305;52.186;5.598;2023-04-08T12:48:52;17.60;99.90
18930;DHT22;43305;52.186;5.598;2023-04-08T12:51:20;17.60;99.90
18930;DHT22;43305;52.186;5.598;2023-04-08T12:53:48;17.70;99.90
18930;DHT22;43305;52.186;5.598;2023-04-08T12:56:18;17.70;99.90
18930;DHT22;43305;52.186;5.598;2023-04-08T12:58:46;17.70;99.90
18930;DHT22;43305;52.186;5.598;2023-04-08T13:01:13;18.00;99.90
18930;DHT22;43305;52.186;5.598;2023-04-08T13:03:40;18.10;99.90
18930;DHT22;43305;52.186;5.598;2023-04-08T13:06:07;18.20;99.90
18930;DHT22;43305;52.186;5.598;2023-04-08T13:08:34;18.20;99.90
18930;DHT22;43305;52.186;5.598;2023-04-08T13:11:03;18.50;99.90
18930;DHT22;43305;52.186;5.598;2023-04-08T13:13:30;18.70;99.90
18930;DHT22;43305;52.186;5.598;2023-04-08T13:15:58;19.00;99.90
18930;DHT22;43305;52.186;5.598;2023-04-08T13:18:25;18.90;99.90
18930;DHT22;43305;52.186;5.598;2023-04-08T13:20:52;19.10;99.90
18930;DHT22;43305;52.186;5.598;2023-04-08T13:23:25;19.10;99.90
18930;DHT22;43305;52.186;5.598;2023-04-08T13:25:59;18.80;99.90
18930;DHT22;43305;52.186;5.598;2023-04-08T13:28:28;18.70;99.90
18930;DHT22;43305;52.186;5.598;2023-04-08T13:30:55;18.40;99.90
18930;DHT22;43305;52.186;5.598;2023-04-08T13:33:28;18.10;99.90
18930;DHT22;43305;52.186;5.598;2023-04-08T13:35:56;18.10;99.90
18930;DHT22;43305;52.186;5.598;2023-04-08T13:38:23;18.10;99.90
18930;DHT22;43305;52.186;5.598;2023-04-08T13:40:51;18.30;99.90
18930;DHT22;43305;52.186;5.598;2023-04-08T13:43:18;18.00;99.90
18930;DHT22;43305;52.186;5.598;2023-04-08T13:45:47;17.90;99.90
18930;DHT22;43305;52.186;5.598;2023-04-08T13:48:15;18.00;99.90
18930;DHT22;43305;52.186;5.598;2023-04-08T13:50:42;18.00;99.90
18930;DHT22;43305;52.186;5.598;2023-04-08T13:53:09;18.10;99.90
18930;DHT22;43305;52.186;5.598;2023-04-08T13:55:36;18.10;99.90
18930;DHT22;43305;52.186;5.598;2023-04-08T13:58:03;18.20;99.90
18930;DHT22;43305;52.186;5.598;2023-04-08T14:00:30;18.30;99.90
18930;DHT22;43305;52.186;5.598;2023-04-08T14:02:58;18.70;99.90
18930;DHT22;43305;52.186;5.598;2023-04-08T14:05:25;18.90;99.90
18930;DHT22;43305;52.186;5.598;2023-04-08T14:07:53;19.30;99.90
18930;DHT22;43305;52.186;5.598;2023-04-08T14:10:21;19.30;99.90
18930;DHT22;43305;52.186;5.598;2023-04-08T14:12:48;19.40;99.90
18930;DHT22;43305;52.186;5.598;2023-04-08T14:15:18;19.60;99.90
18930;DHT22;43305;52.186;5.598;2023-04-08T14:17:45;19.90;99.90
18930;DHT22;43305;52.186;5.598;2023-04-08T14:20:14;20.20;99.90
18930;DHT22;43305;52.186;5.598;2023-04-08T14:22:41;20.40;99.90
18930;DHT22;43305;52.186;5.598;2023-04-08T14:25:11;20.60;99.90
18930;DHT22;43305;52.186;5.598;2023-04-08T14:27:38;20.90;99.90
18930;DHT22;43305;52.186;5.598;2023-04-08T14:30:06;20.70;99.90
18930;DHT22;43305;52.186;5.598;2023-04-08T14:32:38;20.80;99.90
18930;DHT22;43305;52.186;5.598;2023-04-08T14:35:06;21.00;99.90
18930;DHT22;43305;52.186;5.598;2023-04-08T14:37:34;20.70;99.90
18930;DHT22;43305;52.186;5.598;2023-04-08T14:40:03;20.70;99.90
18930;DHT22;43305;52.186;5.598;2023-04-08T14:42:30;20.70;99.90
18930;DHT22;43305;52.186;5.598;2023-04-08T14:44:57;20.60;99.90
18930;DHT22;43305;52.186;5.598;2023-04-08T14:47:24;20.50;99.90
18930;DHT22;43305;52.186;5.598;2023-04-08T14:49:52;20.60;99.90
18930;DHT22;43305;52.186;5.598;2023-04-08T14:52:19;20.60;99.90
18930;DHT22;43305;52.186;5.598;2023-04-08T14:54:47;20.90;99.90
18930;DHT22;43305;52.186;5.598;2023-04-08T14:57:14;20.80;99.90
18930;DHT22;43305;52.186;5.598;2023-04-08T14:59:41;20.70;99.90
18930;DHT22;43305;52.186;5.598;2023-04-08T15:02:14;20.90;99.90
18930;DHT22;43305;52.186;5.598;2023-04-08T15:04:41;21.20;99.90
18930;DHT22;43305;52.186;5.598;2023-04-08T15:07:11;21.20;99.90
18930;DHT22;43305;52.186;5.598;2023-04-08T15:09:39;20.70;99.90
18930;DHT22;43305;52.186;5.598;2023-04-08T15:12:07;20.70;99.90
18930;DHT22;43305;52.186;5.598;2023-04-08T15:14:34;20.90;99.90
18930;DHT22;43305;52.186;5.598;2023-04-08T15:17:01;20.80;99.90
18930;DHT22;43305;52.186;5.598;2023-04-08T15:19:28;21.10;99.90
18930;DHT22;43305;52.186;5.598;2023-04-08T15:21:55;21.00;99.90
18930;DHT22;43305;52.186;5.598;2023-04-08T15:24:22;20.90;99.90
18930;DHT22;43305;52.186;5.598;2023-04-08T15:26:50;21.00;99.90
18930;DHT22;43305;52.186;5.598;2023-04-08T15:29:21;21.00;99.90
18930;DHT22;43305;52.186;5.598;2023-04-08T15:31:50;21.00;99.90
18930;DHT22;43305;52.186;5.598;2023-04-08T15:34:18;20.60;99.90
18930;DHT22;43305;52.186;5.598;2023-04-08T15:36:46;20.70;99.90
18930;DHT22;43305;52.186;5.598;2023-04-08T15:39:13;21.00;99.90
18930;DHT22;43305;52.186;5.598;2023-04-08T15:41:40;21.20;99.90
18930;DHT22;43305;52.186;5.598;2023-04-08T15:44:07;21.20;99.90
18930;DHT22;43305;52.186;5.598;2023-04-08T15:46:35;21.00;99.90
18930;DHT22;43305;52.186;5.598;2023-04-08T15:49:02;20.80;99.90
18930;DHT22;43305;52.186;5.598;2023-04-08T15:51:29;20.60;99.90
18930;DHT22;43305;52.186;5.598;2023-04-08T15:53:56;20.30;99.90
18930;DHT22;43305;52.186;5.598;2023-04-08T15:56:23;20.00;99.90
18930;DHT22;43305;52.186;5.598;2023-04-08T15:58:51;20.00;99.90
18930;DHT22;43305;52.186;5.598;2023-04-08T16:01:19;19.90;99.90
18930;DHT22;43305;52.186;5.598;2023-04-08T16:03:48;19.70;99.90
18930;DHT22;43305;52.186;5.598;2023-04-08T16:06:15;19.80;99.90
18930;DHT22;43305;52.186;5.598;2023-04-08T16:08:42;19.70;99.90
18930;DHT22;43305;52.186;5.598;2023-04-08T16:11:11;19.80;99.90
18930;DHT22;43305;52.186;5.598;2023-04-08T16:13:38;19.90;99.90
18930;DHT22;43305;52.186;5.598;2023-04-08T16:16:07;19.90;99.90